createdAt,value
2018-09-14T00:00:21.642Z,4.00
2018-09-14T00:02:50.106Z,4.17
2018-09-14T00:05:18.590Z,4.90
2018-09-14T00:07:47.048Z,4.50
2018-09-14T00:10:15.534Z,4.20
2018-09-14T00:12:44.017Z,4.60
2018-09-14T00:15:12.536Z,4.27
2018-09-14T00:17:41.008Z,4.30
2018-09-14T00:20:09.451Z,4.70
2018-09-14T00:22:37.841Z,4.90
2018-09-14T00:25:06.286Z,4.97
2018-09-14T00:27:34.789Z,4.63
2018-09-14T00:30:03.297Z,4.50
2018-09-14T00:32:31.736Z,4.50
2018-09-14T00:35:00.178Z,4.67
2018-09-14T00:37:28.800Z,4.80
2018-09-14T00:39:57.344Z,4.17
2018-09-14T00:42:25.824Z,4.10
2018-09-14T00:44:54.282Z,4.30
2018-09-14T00:47:22.695Z,4.40
2018-09-14T00:49:51.143Z,4.37
2018-09-14T00:52:19.647Z,4.50
2018-09-14T00:54:48.103Z,4.87
2018-09-14T00:57:16.555Z,4.37
2018-09-14T00:59:45.008Z,4.60
2018-09-14T01:02:13.632Z,4.17
2018-09-14T01:04:42.053Z,4.30
2018-09-14T01:07:10.484Z,4.80
2018-09-14T01:09:38.911Z,4.30
2018-09-14T01:12:07.399Z,4.40
2018-09-14T01:14:35.828Z,4.37
2018-09-14T01:17:04.313Z,3.97
2018-09-14T01:19:32.828Z,4.10
2018-09-14T01:22:01.256Z,4.17
2018-09-14T01:24:29.696Z,4.30
2018-09-14T01:26:58.149Z,4.20
2018-09-14T01:29:26.570Z,4.27
2018-09-14T01:31:55.090Z,4.00
2018-09-14T01:34:23.625Z,4.30
2018-09-14T01:36:52.082Z,4.20
2018-09-14T01:39:20.526Z,4.20
2018-09-14T01:41:48.976Z,3.90
2018-09-14T01:44:17.566Z,4.70
2018-09-14T01:46:46.072Z,4.73
2018-09-14T01:49:14.544Z,4.00
2018-09-14T01:51:42.992Z,4.10
2018-09-14T01:54:11.549Z,4.50
2018-09-14T01:56:40.118Z,4.00
2018-09-14T01:59:08.680Z,4.57
2018-09-14T02:01:37.126Z,4.03
2018-09-14T02:04:05.552Z,4.30
2018-09-14T02:06:33.966Z,4.40
2018-09-14T02:09:02.391Z,4.57
2018-09-14T02:11:30.778Z,4.43
2018-09-14T02:13:59.212Z,4.20
2018-09-14T02:16:27.751Z,4.43
2018-09-14T02:18:56.205Z,5.00
2018-09-14T02:21:24.632Z,5.33
2018-09-14T02:23:53.189Z,5.37
2018-09-14T02:26:21.715Z,5.20
2018-09-14T02:28:50.126Z,5.00
2018-09-14T02:31:18.580Z,4.70
2018-09-14T02:33:47.013Z,5.00
2018-09-14T02:36:15.506Z,5.00
2018-09-14T02:38:43.918Z,4.90
2018-09-14T02:41:12.313Z,4.60
2018-09-14T02:43:40.791Z,4.83
2018-09-14T02:46:09.251Z,4.77
2018-09-14T02:48:37.717Z,4.60
2018-09-14T02:51:06.248Z,4.83
2018-09-14T02:53:34.737Z,4.93
2018-09-14T02:56:03.185Z,5.60
2018-09-14T02:58:31.714Z,4.73
2018-09-14T03:01:00.185Z,4.60
2018-09-14T03:03:28.602Z,4.90
2018-09-14T03:05:57.028Z,4.47
2018-09-14T03:08:25.619Z,4.90
2018-09-14T03:10:54.078Z,4.87
2018-09-14T03:13:22.516Z,5.33
2018-09-14T03:15:51.084Z,4.90
2018-09-14T03:18:19.640Z,4.57
2018-09-14T03:20:48.098Z,4.97
2018-09-14T03:23:16.589Z,4.47
2018-09-14T03:25:44.995Z,5.30
2018-09-14T03:28:13.460Z,5.07
2018-09-14T03:30:41.966Z,4.93
2018-09-14T03:33:10.384Z,4.63
2018-09-14T03:35:38.827Z,4.80
2018-09-14T03:38:07.248Z,4.77
2018-09-14T03:40:35.774Z,4.92
2018-09-14T03:43:04.211Z,4.93
2018-09-14T03:45:32.625Z,5.53
2018-09-14T03:48:01.009Z,5.17
2018-09-14T03:50:29.460Z,4.80
2018-09-14T03:52:57.957Z,4.80
2018-09-14T03:55:26.987Z,4.50
2018-09-14T03:57:55.452Z,5.07
2018-09-14T04:00:23.888Z,4.80
2018-09-14T04:02:52.288Z,4.67
2018-09-14T04:05:20.712Z,5.30
2018-09-14T04:07:49.163Z,4.77
2018-09-14T04:10:17.633Z,4.93
2018-09-14T04:12:46.117Z,4.47
2018-09-14T04:15:14.512Z,4.80
2018-09-14T04:17:43.656Z,5.20
2018-09-14T04:20:12.036Z,5.30
2018-09-14T04:22:40.477Z,5.23
2018-09-14T04:25:08.861Z,5.30
2018-09-14T04:27:37.323Z,5.30
2018-09-14T04:30:05.911Z,5.20
2018-09-14T04:32:34.369Z,5.57
2018-09-14T04:35:02.783Z,5.40
2018-09-14T04:37:31.232Z,5.00
2018-09-14T04:39:59.754Z,5.57
2018-09-14T04:42:28.180Z,5.00
2018-09-14T04:44:56.600Z,5.20
2018-09-14T04:47:25.031Z,5.40
2018-09-14T04:49:53.442Z,5.37
2018-09-14T04:52:21.855Z,5.30
2018-09-14T04:54:50.255Z,5.20
2018-09-14T04:57:18.706Z,5.60
2018-09-14T04:59:47.180Z,5.10
2018-09-14T05:02:15.782Z,5.33
2018-09-14T05:04:44.211Z,5.60
2018-09-14T05:07:12.703Z,5.73
2018-09-14T05:09:41.655Z,5.60
2018-09-14T05:12:10.131Z,5.50
2018-09-14T05:14:38.560Z,5.80
2018-09-14T05:17:07.777Z,5.70
2018-09-14T05:19:36.303Z,6.73
2018-09-14T05:22:04.842Z,6.40
2018-09-14T05:24:33.360Z,6.07
2018-09-14T05:27:01.740Z,6.10
2018-09-14T05:29:30.190Z,5.93
2018-09-14T05:31:58.596Z,6.30
2018-09-14T05:34:27.836Z,6.67
2018-09-14T05:36:56.257Z,6.83
2018-09-14T05:39:24.680Z,6.67
2018-09-14T05:41:53.234Z,7.20
2018-09-14T05:44:21.719Z,7.50
2018-09-14T05:46:50.144Z,8.00
2018-09-14T05:49:18.625Z,7.63
2018-09-14T05:51:47.068Z,8.23
2018-09-14T05:54:15.592Z,8.57
2018-09-14T05:56:44.099Z,7.70
2018-09-14T05:59:12.518Z,7.00
2018-09-14T06:01:41.104Z,6.60
2018-09-14T06:04:09.544Z,7.17
2018-09-14T06:06:38.077Z,6.90
2018-09-14T06:09:09.706Z,6.70
2018-09-14T06:11:38.184Z,6.43
2018-09-14T06:14:06.791Z,6.70
2018-09-14T06:16:36.170Z,6.20
2018-09-14T06:19:04.686Z,7.00
2018-09-14T06:21:33.924Z,7.13
2018-09-14T06:24:02.407Z,7.20
2018-09-14T06:26:30.874Z,6.87
2018-09-14T06:29:01.209Z,7.60
2018-09-14T06:31:29.633Z,7.57
2018-09-14T06:33:58.062Z,8.20
2018-09-14T06:36:26.579Z,8.17
2018-09-14T06:38:55.050Z,7.93
2018-09-14T06:41:23.546Z,9.43
2018-09-14T06:43:52.371Z,10.87
2018-09-14T06:46:20.880Z,10.37
2018-09-14T06:48:49.360Z,11.03
2018-09-14T06:51:17.816Z,11.03
2018-09-14T06:53:47.309Z,10.17
2018-09-14T06:56:15.794Z,10.57
2018-09-14T06:58:52.673Z,11.10
2018-09-14T07:01:21.182Z,12.80
2018-09-14T07:03:50.468Z,13.30
2018-09-14T07:06:18.990Z,13.20
2018-09-14T07:08:47.582Z,13.47
2018-09-14T07:11:16.213Z,15.17
2018-09-14T07:13:44.735Z,14.97
2018-09-14T07:16:13.237Z,18.43
2018-09-14T07:18:41.751Z,17.10
2018-09-14T07:21:10.222Z,16.33
2018-09-14T07:23:38.656Z,17.30
2018-09-14T07:26:07.281Z,16.37
2018-09-14T07:28:36.539Z,16.70
2018-09-14T07:31:04.973Z,16.27
2018-09-14T07:33:33.390Z,15.60
2018-09-14T07:36:01.876Z,14.70
2018-09-14T07:38:30.381Z,14.23
2018-09-14T07:40:58.826Z,15.27
2018-09-14T07:43:27.250Z,14.37
2018-09-14T07:45:55.704Z,14.20
2018-09-14T07:48:24.234Z,15.00
2018-09-14T07:50:52.689Z,14.73
2018-09-14T07:53:21.136Z,14.63
2018-09-14T07:55:49.615Z,15.10
2018-09-14T07:58:18.097Z,14.93
2018-09-14T08:00:46.512Z,14.20
2018-09-14T08:03:15.032Z,14.43
2018-09-14T08:05:43.503Z,14.90
2018-09-14T08:08:12.022Z,15.07
2018-09-14T08:10:40.555Z,14.77
2018-09-14T08:13:09.086Z,15.93
2018-09-14T08:15:38.439Z,15.80
2018-09-14T08:18:06.910Z,16.67
2018-09-14T08:20:35.354Z,15.70
2018-09-14T08:23:03.820Z,16.07
2018-09-14T08:25:32.311Z,16.17
2018-09-14T08:28:00.808Z,16.03
2018-09-14T08:30:29.241Z,17.67
2018-09-14T08:32:57.713Z,18.10
2018-09-14T08:35:26.173Z,15.73
2018-09-14T08:37:54.647Z,17.17
2018-09-14T08:40:23.065Z,18.10
2018-09-14T08:42:52.095Z,18.80
2018-09-14T08:45:20.557Z,17.83
2018-09-14T08:47:49.126Z,17.33
2018-09-14T08:50:17.543Z,17.47
2018-09-14T08:52:46.098Z,17.33
2018-09-14T08:55:14.592Z,18.00
2018-09-14T08:57:43.110Z,15.67
2018-09-14T09:00:11.667Z,16.27
2018-09-14T09:02:40.131Z,16.07
2018-09-14T09:05:08.607Z,16.53
2018-09-14T09:07:37.038Z,16.93
2018-09-14T09:10:05.604Z,14.93
2018-09-14T09:12:34.080Z,14.47
2018-09-14T09:15:02.491Z,14.10
2018-09-14T09:17:31.023Z,12.80
2018-09-14T09:20:00.392Z,13.73
2018-09-14T09:22:28.800Z,9.90
2018-09-14T09:24:57.392Z,12.37
2018-09-14T09:27:25.882Z,12.47
2018-09-14T09:29:54.354Z,8.63
2018-09-14T09:32:22.837Z,10.47
2018-09-14T09:34:51.325Z,10.43
2018-09-14T09:37:19.806Z,8.57
2018-09-14T09:39:48.280Z,10.00
2018-09-14T09:42:16.730Z,9.77
2018-09-14T09:44:45.172Z,8.97
2018-09-14T09:47:13.589Z,10.17
2018-09-14T09:49:42.011Z,9.20
2018-09-14T09:52:10.390Z,10.43
2018-09-14T09:54:39.238Z,10.07
2018-09-14T09:57:07.780Z,10.37
2018-09-14T09:59:36.216Z,8.73
2018-09-14T10:02:09.926Z,10.07
2018-09-14T10:04:43.688Z,10.70
2018-09-14T10:07:12.162Z,9.70
2018-09-14T10:09:40.684Z,7.97
2018-09-14T10:12:09.114Z,10.00
2018-09-14T10:14:38.632Z,10.97
2018-09-14T10:17:07.078Z,10.20
2018-09-14T10:19:35.810Z,9.67
2018-09-14T10:22:04.381Z,9.37
2018-09-14T10:24:32.812Z,8.00
2018-09-14T10:27:01.289Z,8.33
2018-09-14T10:29:29.808Z,7.33
2018-09-14T10:31:58.260Z,8.00
2018-09-14T10:34:26.808Z,7.50
2018-09-14T10:36:55.302Z,8.33
2018-09-14T10:39:24.723Z,8.10
2018-09-14T10:41:53.221Z,6.90
2018-09-14T10:44:21.743Z,7.00
2018-09-14T10:46:50.185Z,6.90
2018-09-14T10:49:18.630Z,5.23
2018-09-14T10:51:47.877Z,5.97
2018-09-14T10:54:16.378Z,6.50
2018-09-14T10:56:44.991Z,7.40
2018-09-14T10:59:13.431Z,6.40
2018-09-14T11:01:41.852Z,6.03
2018-09-14T11:04:10.340Z,7.03
2018-09-14T11:06:38.880Z,7.33
2018-09-14T11:09:10.476Z,7.10
2018-09-14T11:11:39.520Z,8.17
2018-09-14T11:14:08.166Z,7.13
2018-09-14T11:16:37.117Z,6.37
2018-09-14T11:19:05.775Z,6.43
2018-09-14T11:21:34.541Z,6.50
2018-09-14T11:24:03.104Z,5.53
2018-09-14T11:26:31.740Z,7.20
2018-09-14T11:29:00.321Z,7.30
2018-09-14T11:31:29.105Z,6.77
2018-09-14T11:33:58.266Z,5.80
2018-09-14T11:36:27.267Z,5.40
2018-09-14T11:38:55.701Z,4.90
2018-09-14T11:41:24.156Z,6.07
2018-09-14T11:43:52.594Z,5.80
2018-09-14T11:46:21.258Z,5.47
2018-09-14T11:48:50.509Z,5.30
2018-09-14T11:51:19.618Z,4.13
2018-09-14T11:53:48.080Z,4.93
2018-09-14T11:56:16.531Z,4.60
2018-09-14T11:58:45.069Z,4.60
2018-09-14T12:01:13.554Z,5.50
2018-09-14T12:03:41.995Z,5.77
2018-09-14T12:06:10.497Z,5.50
2018-09-14T12:08:38.966Z,5.00
2018-09-14T12:11:07.544Z,5.33
2018-09-14T12:13:36.056Z,5.57
2018-09-14T12:16:04.466Z,4.80
2018-09-14T12:18:32.930Z,5.30
2018-09-14T12:21:01.410Z,5.70
2018-09-14T12:23:29.856Z,5.50
2018-09-14T12:25:58.292Z,6.33
2018-09-14T12:28:26.761Z,5.07
2018-09-14T12:30:55.356Z,3.80
2018-09-14T12:33:23.838Z,5.47
2018-09-14T12:35:52.292Z,5.57
2018-09-14T12:38:20.703Z,4.93
2018-09-14T12:40:49.150Z,5.30
2018-09-14T12:43:17.619Z,6.30
2018-09-14T12:45:46.084Z,5.50
2018-09-14T12:48:14.550Z,5.60
2018-09-14T12:50:43.112Z,5.87
2018-09-14T12:53:11.598Z,5.50
2018-09-14T12:55:40.065Z,4.90
2018-09-14T12:58:08.528Z,4.60
2018-09-14T13:00:36.992Z,4.37
2018-09-14T13:03:05.541Z,3.53
2018-09-14T13:05:34.027Z,2.80
2018-09-14T13:08:02.658Z,3.00
2018-09-14T13:10:31.152Z,2.87
2018-09-14T13:12:59.767Z,3.00
2018-09-14T13:15:28.258Z,3.30
2018-09-14T13:17:56.785Z,3.50
2018-09-14T13:20:25.284Z,3.30
2018-09-14T13:22:53.719Z,3.23
2018-09-14T13:25:22.231Z,2.93
2018-09-14T13:27:50.697Z,3.00
2018-09-14T13:30:19.181Z,3.07
2018-09-14T13:32:52.651Z,3.60
2018-09-14T13:35:22.979Z,3.60
2018-09-14T13:37:51.954Z,3.33
2018-09-14T13:40:20.742Z,3.63
2018-09-14T13:42:49.215Z,3.53
2018-09-14T13:45:17.975Z,3.50
2018-09-14T13:47:46.477Z,3.10
2018-09-14T13:50:14.968Z,3.27
2018-09-14T13:52:43.414Z,3.63
2018-09-14T13:55:11.863Z,2.57
2018-09-14T13:57:40.288Z,3.30
2018-09-14T14:00:08.838Z,3.70
2018-09-14T14:02:37.302Z,3.87
2018-09-14T14:05:05.815Z,3.70
2018-09-14T14:07:34.270Z,3.30
2018-09-14T14:10:02.738Z,3.53
2018-09-14T14:12:31.236Z,3.40
2018-09-14T14:14:59.695Z,3.40
2018-09-14T14:17:28.277Z,3.23
2018-09-14T14:19:56.654Z,2.30
2018-09-14T14:22:25.274Z,2.87
2018-09-14T14:24:53.725Z,3.03
2018-09-14T14:27:22.184Z,3.10
2018-09-14T14:29:50.691Z,3.50
2018-09-14T14:32:20.196Z,3.37
2018-09-14T14:34:48.657Z,3.97
2018-09-14T14:37:17.091Z,2.70
2018-09-14T14:39:45.571Z,4.00
2018-09-14T14:42:14.061Z,4.03
2018-09-14T14:44:42.542Z,3.73
2018-09-14T14:47:11.038Z,3.77
2018-09-14T14:49:39.546Z,3.60
2018-09-14T14:52:08.096Z,3.50
2018-09-14T14:54:36.529Z,3.37
2018-09-14T14:57:04.991Z,3.27
2018-09-14T14:59:33.532Z,3.47
2018-09-14T15:02:02.124Z,2.87
2018-09-14T15:04:30.543Z,3.13
2018-09-14T15:06:58.961Z,2.93
2018-09-14T15:09:27.516Z,2.80
2018-09-14T15:11:55.952Z,3.30
2018-09-14T15:14:24.391Z,3.00
2018-09-14T15:16:52.819Z,3.27
2018-09-14T15:19:21.355Z,3.10
2018-09-14T15:21:49.942Z,3.10
2018-09-14T15:24:18.357Z,2.87
2018-09-14T15:26:46.868Z,3.40
2018-09-14T15:29:15.328Z,3.47
2018-09-14T15:31:43.835Z,3.43
2018-09-14T15:34:18.802Z,3.50
2018-09-14T15:36:47.260Z,3.50
2018-09-14T15:39:15.697Z,3.67
2018-09-14T15:41:44.177Z,3.37
2018-09-14T15:44:12.659Z,3.70
2018-09-14T15:46:41.113Z,3.60
2018-09-14T15:49:09.588Z,3.30
2018-09-14T15:51:38.071Z,3.57
2018-09-14T15:54:06.686Z,3.50
2018-09-14T15:56:35.142Z,3.97
2018-09-14T15:59:03.601Z,3.80
2018-09-14T16:01:32.093Z,3.83
2018-09-14T16:04:00.527Z,3.60
2018-09-14T16:06:29.048Z,3.60
2018-09-14T16:08:57.475Z,4.07
2018-09-14T16:11:26.009Z,4.23
2018-09-14T16:13:54.582Z,4.20
2018-09-14T16:16:22.987Z,4.40
2018-09-14T16:18:51.476Z,4.33
2018-09-14T16:21:20.042Z,3.80
2018-09-14T16:23:48.612Z,3.90
2018-09-14T16:26:17.667Z,3.67
2018-09-14T16:28:46.499Z,3.90
2018-09-14T16:31:14.971Z,3.80
2018-09-14T16:33:44.281Z,3.63
2018-09-14T16:36:12.790Z,4.10
2018-09-14T16:38:41.731Z,4.50
2018-09-14T16:41:10.196Z,4.13
2018-09-14T16:43:38.657Z,4.07
2018-09-14T16:46:07.127Z,3.80
2018-09-14T16:48:35.601Z,4.13
2018-09-14T16:51:04.079Z,4.17
2018-09-14T16:53:32.532Z,3.80
2018-09-14T16:56:00.998Z,4.30
2018-09-14T16:58:29.567Z,3.90
2018-09-14T17:00:58.059Z,4.10
2018-09-14T17:03:26.521Z,3.20
2018-09-14T17:05:54.973Z,3.83
2018-09-14T17:08:23.607Z,4.00
2018-09-14T17:10:52.189Z,3.87
2018-09-14T17:13:20.663Z,3.90
2018-09-14T17:15:49.672Z,3.90
2018-09-14T17:18:18.318Z,3.87
2018-09-14T17:20:46.753Z,4.40
2018-09-14T17:23:15.341Z,4.17
2018-09-14T17:25:43.924Z,4.00
2018-09-14T17:28:12.870Z,3.73
2018-09-14T17:30:41.359Z,4.03
2018-09-14T17:33:09.820Z,3.93
2018-09-14T17:35:38.307Z,4.17
2018-09-14T17:38:06.827Z,3.70
2018-09-14T17:40:35.295Z,3.90
2018-09-14T17:43:03.706Z,6.37
2018-09-14T17:45:32.193Z,6.70
2018-09-14T17:48:00.766Z,5.27
2018-09-14T17:50:29.195Z,5.70
2018-09-14T17:52:57.616Z,7.93
2018-09-14T17:55:26.058Z,9.83
2018-09-14T17:57:54.608Z,8.70
2018-09-14T18:00:23.016Z,5.80
2018-09-14T18:02:51.482Z,4.30
2018-09-14T18:05:19.924Z,4.63
2018-09-14T18:07:48.500Z,3.80
2018-09-14T18:10:16.918Z,3.70
2018-09-14T18:12:45.386Z,3.90
2018-09-14T18:15:14.026Z,3.73
2018-09-14T18:17:42.611Z,4.10
2018-09-14T18:20:11.613Z,3.77
2018-09-14T18:22:40.057Z,3.70
2018-09-14T18:25:08.569Z,3.73
2018-09-14T18:27:37.118Z,3.57
2018-09-14T18:30:06.018Z,3.97
2018-09-14T18:32:34.461Z,3.53
2018-09-14T18:35:03.016Z,3.27
2018-09-14T18:37:31.490Z,3.40
2018-09-14T18:39:59.907Z,3.50
2018-09-14T18:42:28.410Z,3.17
2018-09-14T18:44:56.889Z,3.30
2018-09-14T18:47:25.319Z,3.00
2018-09-14T18:49:53.827Z,3.30
2018-09-14T18:52:22.288Z,2.80
2018-09-14T18:54:50.750Z,2.30
2018-09-14T18:57:19.203Z,2.90
2018-09-14T18:59:47.733Z,3.30
2018-09-14T19:02:16.192Z,3.20
2018-09-14T19:04:44.700Z,3.27
2018-09-14T19:07:13.104Z,3.23
2018-09-14T19:09:42.428Z,3.33
2018-09-14T19:12:10.880Z,3.70
2018-09-14T19:14:39.624Z,3.27
2018-09-14T19:17:08.070Z,3.50
2018-09-14T19:19:36.629Z,3.37
2018-09-14T19:22:05.318Z,3.80
2018-09-14T19:24:34.456Z,3.47
2018-09-14T19:27:02.919Z,3.60
2018-09-14T19:29:31.368Z,3.27
2018-09-14T19:31:59.881Z,3.57
2018-09-14T19:34:28.301Z,4.00
2018-09-14T19:36:57.575Z,3.53
2018-09-14T19:39:26.007Z,3.33
2018-09-14T19:41:54.405Z,3.87
2018-09-14T19:44:22.891Z,3.17
2018-09-14T19:46:51.408Z,3.10
2018-09-14T19:49:19.908Z,3.10
2018-09-14T19:51:48.382Z,3.20
2018-09-14T19:54:16.912Z,3.10
2018-09-14T19:56:45.471Z,3.27
2018-09-14T19:59:13.944Z,3.03
2018-09-14T20:01:42.898Z,3.07
2018-09-14T20:04:11.358Z,2.80
2018-09-14T20:06:39.931Z,3.30
2018-09-14T20:09:10.942Z,3.00
2018-09-14T20:11:39.663Z,3.00
2018-09-14T20:14:08.169Z,3.13
2018-09-14T20:16:37.795Z,3.60
2018-09-14T20:19:06.380Z,3.40
2018-09-14T20:21:34.848Z,3.27
2018-09-14T20:24:03.420Z,2.87
2018-09-14T20:26:31.896Z,3.10
2018-09-14T20:29:00.293Z,3.20
2018-09-14T20:31:28.751Z,3.20
2018-09-14T20:33:57.218Z,3.40
2018-09-14T20:36:25.615Z,3.60
2018-09-14T20:38:54.048Z,3.40
2018-09-14T20:41:22.534Z,4.00
2018-09-14T20:43:50.977Z,4.33
2018-09-14T20:46:19.585Z,5.10
2018-09-14T20:48:48.044Z,4.50
2018-09-14T20:51:16.504Z,4.90
2018-09-14T20:53:44.926Z,4.30
2018-09-14T20:56:13.416Z,4.30
2018-09-14T20:58:41.876Z,3.80
2018-09-14T21:01:10.448Z,4.07
2018-09-14T21:03:38.942Z,3.70
2018-09-14T21:06:07.500Z,3.40
2018-09-14T21:08:36.470Z,3.43
2018-09-14T21:11:04.949Z,4.00
2018-09-14T21:13:33.401Z,3.70
2018-09-14T21:16:01.885Z,3.50
2018-09-14T21:18:30.383Z,3.47
2018-09-14T21:20:59.376Z,3.30
2018-09-14T21:23:27.815Z,3.77
2018-09-14T21:25:56.313Z,3.47
2018-09-14T21:28:25.046Z,3.40
2018-09-14T21:30:53.508Z,3.70
2018-09-14T21:33:21.929Z,3.27
2018-09-14T21:35:51.330Z,3.30
2018-09-14T21:38:19.748Z,3.17
2018-09-14T21:40:48.315Z,3.30
2018-09-14T21:43:16.867Z,2.90
2018-09-14T21:45:45.289Z,3.53
2018-09-14T21:48:13.849Z,3.50
2018-09-14T21:50:42.263Z,3.00
2018-09-14T21:53:10.694Z,3.20
2018-09-14T21:55:39.212Z,2.63
2018-09-14T21:58:07.658Z,2.73
2018-09-14T22:00:41.444Z,3.00
2018-09-14T22:03:09.880Z,2.70
2018-09-14T22:05:38.351Z,2.53
2018-09-14T22:08:06.754Z,2.50
2018-09-14T22:10:35.372Z,2.93
2018-09-14T22:13:04.448Z,2.70
2018-09-14T22:15:32.862Z,2.80
2018-09-14T22:18:01.344Z,2.73
2018-09-14T22:20:29.817Z,3.03
2018-09-14T22:22:58.282Z,3.00
2018-09-14T22:25:26.744Z,3.40
2018-09-14T22:27:55.171Z,3.10
2018-09-14T22:30:23.654Z,2.93
2018-09-14T22:32:52.223Z,3.00
2018-09-14T22:35:20.691Z,2.70
2018-09-14T22:37:49.239Z,2.70
2018-09-14T22:40:17.680Z,2.93
2018-09-14T22:42:46.136Z,2.87
2018-09-14T22:45:14.636Z,2.77
2018-09-14T22:47:43.027Z,3.23
2018-09-14T22:50:11.514Z,3.43
2018-09-14T22:52:39.970Z,3.23
2018-09-14T22:55:08.390Z,2.87
2018-09-14T22:57:36.849Z,2.87
2018-09-14T23:00:05.445Z,2.80
2018-09-14T23:02:33.884Z,2.83
2018-09-14T23:05:02.319Z,2.97
2018-09-14T23:07:30.778Z,2.77
2018-09-14T23:09:59.227Z,3.03
2018-09-14T23:12:27.667Z,2.90
2018-09-14T23:14:56.121Z,2.50
2018-09-14T23:17:24.579Z,2.53
2018-09-14T23:19:52.998Z,2.20
2018-09-14T23:22:21.401Z,2.40
2018-09-14T23:24:49.929Z,2.60
2018-09-14T23:27:18.389Z,2.23
2018-09-14T23:29:46.828Z,2.33
2018-09-14T23:32:15.445Z,2.23
2018-09-14T23:34:43.882Z,2.40
2018-09-14T23:37:13.216Z,2.30
2018-09-14T23:39:41.714Z,2.33
2018-09-14T23:42:10.182Z,2.27
2018-09-14T23:44:38.607Z,2.10
2018-09-14T23:47:07.250Z,2.20
2018-09-14T23:49:35.686Z,2.30
2018-09-14T23:52:04.152Z,2.00
2018-09-14T23:54:32.694Z,2.07
2018-09-14T23:57:01.113Z,2.30
2018-09-14T23:59:29.605Z,2.10
